createdAt,value
2019-03-12T00:00:51.806Z,2.20
2019-03-12T00:03:21.429Z,2.50
2019-03-12T00:05:50.675Z,2.27
2019-03-12T00:08:20.148Z,2.40
2019-03-12T00:10:49.430Z,2.60
2019-03-12T00:13:18.671Z,1.97
2019-03-12T00:15:47.970Z,2.23
2019-03-12T00:18:17.139Z,2.10
2019-03-12T00:20:46.409Z,2.93
2019-03-12T00:23:15.809Z,2.57
2019-03-12T00:25:45.069Z,2.30
2019-03-12T00:28:14.379Z,2.27
2019-03-12T00:30:43.578Z,2.30
2019-03-12T00:33:12.837Z,2.50
2019-03-12T00:35:42.118Z,2.60
2019-03-12T00:38:11.376Z,2.50
2019-03-12T00:40:40.644Z,2.40
2019-03-12T00:43:09.941Z,2.10
2019-03-12T00:45:39.283Z,2.40
2019-03-12T00:48:08.510Z,2.30
2019-03-12T00:50:37.985Z,2.73
2019-03-12T00:53:07.686Z,1.83
2019-03-12T00:55:37.013Z,2.13
2019-03-12T00:58:06.278Z,1.80
2019-03-12T01:00:35.651Z,1.90
2019-03-12T01:03:05.200Z,1.77
2019-03-12T01:05:34.413Z,2.97
2019-03-12T01:08:03.924Z,2.17
2019-03-12T01:10:33.186Z,1.70
2019-03-12T01:13:07.903Z,1.80
2019-03-12T01:15:37.212Z,1.73
2019-03-12T01:18:06.533Z,2.47
2019-03-12T01:20:36.231Z,2.10
2019-03-12T01:23:05.887Z,2.50
2019-03-12T01:25:35.138Z,1.93
2019-03-12T01:28:04.498Z,2.57
2019-03-12T01:30:33.678Z,2.63
2019-03-12T01:33:03.043Z,2.70
2019-03-12T01:35:32.310Z,2.30
2019-03-12T01:38:01.543Z,2.67
2019-03-12T01:40:30.798Z,2.10
2019-03-12T01:43:00.097Z,2.80
2019-03-12T01:45:29.464Z,2.47
2019-03-12T01:48:00.946Z,2.90
2019-03-12T01:50:30.226Z,3.13
2019-03-12T01:53:00.448Z,2.73
2019-03-12T01:55:29.795Z,3.10
2019-03-12T01:57:59.066Z,2.63
2019-03-12T02:00:28.377Z,2.97
2019-03-12T02:02:57.755Z,3.00
2019-03-12T02:05:27.305Z,2.77
2019-03-12T02:07:56.738Z,2.80
2019-03-12T02:10:26.222Z,4.43
2019-03-12T02:12:55.394Z,2.83
2019-03-12T02:15:24.687Z,2.83
2019-03-12T02:17:54.462Z,3.37
2019-03-12T02:20:23.723Z,3.10
2019-03-12T02:22:53.040Z,2.50
2019-03-12T02:25:22.510Z,3.20
2019-03-12T02:27:51.777Z,3.00
2019-03-12T02:30:21.696Z,3.03
2019-03-12T02:32:51.015Z,3.57
2019-03-12T02:35:20.308Z,3.13
2019-03-12T02:37:49.536Z,3.57
2019-03-12T02:40:18.825Z,3.23
2019-03-12T02:42:52.573Z,2.97
2019-03-12T02:45:21.874Z,3.60
2019-03-12T02:47:51.112Z,2.70
2019-03-12T02:50:20.390Z,3.07
2019-03-12T02:52:49.646Z,2.17
2019-03-12T02:55:19.107Z,2.50
2019-03-12T02:57:48.374Z,2.40
2019-03-12T03:00:23.246Z,2.97
2019-03-12T03:02:52.481Z,3.10
2019-03-12T03:05:21.859Z,3.10
2019-03-12T03:07:56.417Z,2.20
2019-03-12T03:10:25.740Z,2.83
2019-03-12T03:12:55.396Z,2.37
2019-03-12T03:15:26.654Z,3.10
2019-03-12T03:17:55.904Z,2.20
2019-03-12T03:20:25.248Z,2.77
2019-03-12T03:22:54.595Z,2.63
2019-03-12T03:25:24.002Z,2.83
2019-03-12T03:27:53.250Z,2.40
2019-03-12T03:30:23.560Z,3.67
2019-03-12T03:32:52.964Z,3.07
2019-03-12T03:35:22.320Z,2.40
2019-03-12T03:37:51.560Z,2.63
2019-03-12T03:40:21.148Z,2.90
2019-03-12T03:42:51.098Z,2.53
2019-03-12T03:45:21.050Z,3.23
2019-03-12T03:47:50.366Z,3.50
2019-03-12T03:50:19.748Z,4.87
2019-03-12T03:52:48.986Z,3.20
2019-03-12T03:55:19.385Z,2.33
2019-03-12T03:57:48.786Z,2.63
2019-03-12T04:00:20.022Z,2.80
2019-03-12T04:02:49.317Z,2.60
2019-03-12T04:05:18.832Z,2.13
2019-03-12T04:07:48.168Z,2.57
2019-03-12T04:10:18.029Z,4.00
2019-03-12T04:12:47.348Z,2.63
2019-03-12T04:15:17.013Z,2.87
2019-03-12T04:17:46.631Z,3.20
2019-03-12T04:20:16.435Z,2.83
2019-03-12T04:22:46.176Z,4.10
2019-03-12T04:25:15.579Z,2.57
2019-03-12T04:27:45.030Z,2.67
2019-03-12T04:30:14.670Z,3.43
2019-03-12T04:32:44.208Z,3.50
2019-03-12T04:35:15.111Z,2.70
2019-03-12T04:37:44.674Z,3.07
2019-03-12T04:40:14.517Z,2.40
2019-03-12T04:42:44.202Z,3.63
2019-03-12T04:45:14.955Z,5.03
2019-03-12T04:47:44.514Z,3.40
2019-03-12T04:50:14.262Z,3.63
2019-03-12T04:52:43.639Z,3.97
2019-03-12T04:55:13.435Z,4.33
2019-03-12T04:57:42.848Z,4.23
2019-03-12T05:00:14.992Z,4.17
2019-03-12T05:02:44.325Z,3.90
2019-03-12T05:05:13.711Z,2.90
2019-03-12T05:07:42.970Z,2.93
2019-03-12T05:10:14.107Z,3.10
2019-03-12T05:12:43.387Z,4.00
2019-03-12T05:15:13.895Z,4.27
2019-03-12T05:17:43.851Z,2.70
2019-03-12T05:20:14.211Z,2.63
2019-03-12T05:22:43.466Z,3.73
2019-03-12T05:25:13.662Z,4.43
2019-03-12T05:27:47.391Z,3.40
2019-03-12T05:30:17.759Z,3.50
2019-03-12T05:32:47.081Z,3.67
2019-03-12T05:35:16.314Z,3.07
2019-03-12T05:37:46.026Z,3.03
2019-03-12T05:40:15.779Z,2.67
2019-03-12T05:42:45.458Z,2.83
2019-03-12T05:45:14.682Z,2.60
2019-03-12T05:47:44.080Z,2.47
2019-03-12T05:50:13.767Z,2.50
2019-03-12T05:52:42.992Z,2.30
2019-03-12T05:55:12.965Z,2.10
2019-03-12T05:57:42.276Z,2.70
2019-03-12T06:00:13.213Z,2.40
2019-03-12T06:02:44.612Z,1.93
2019-03-12T06:05:14.304Z,1.60
2019-03-12T06:07:43.670Z,1.93
2019-03-12T06:10:13.728Z,1.87
2019-03-12T06:12:42.991Z,1.40
2019-03-12T06:15:12.314Z,2.20
2019-03-12T06:17:41.551Z,2.17
2019-03-12T06:20:11.075Z,2.00
2019-03-12T06:22:40.376Z,2.33
2019-03-12T06:25:09.782Z,1.80
2019-03-12T06:27:39.080Z,1.60
2019-03-12T06:30:09.921Z,2.20
2019-03-12T06:32:51.786Z,2.83
2019-03-12T06:35:29.754Z,1.40
2019-03-12T06:38:11.504Z,1.70
2019-03-12T06:41:05.544Z,1.80
2019-03-12T06:43:59.642Z,3.37
2019-03-12T06:46:56.286Z,1.80
2019-03-12T06:49:53.842Z,1.70
2019-03-12T06:52:42.514Z,1.80
2019-03-12T06:55:36.887Z,1.77
2019-03-12T06:58:25.708Z,1.73
2019-03-12T07:01:12.798Z,2.70
2019-03-12T07:04:01.012Z,1.83
2019-03-12T07:06:41.065Z,1.67
2019-03-12T07:09:29.578Z,1.30
2019-03-12T07:12:10.255Z,1.60
2019-03-12T07:14:45.346Z,1.23
2019-03-12T07:17:35.182Z,1.93
2019-03-12T07:20:33.040Z,1.93
2019-03-12T07:23:33.431Z,2.37
2019-03-12T07:26:20.156Z,1.70
2019-03-12T07:29:07.937Z,1.90
2019-03-12T07:31:55.084Z,1.20
2019-03-12T07:34:42.171Z,1.80
2019-03-12T07:37:36.036Z,1.83
2019-03-12T07:40:24.385Z,2.00
2019-03-12T07:43:15.398Z,2.60
2019-03-12T07:45:53.393Z,1.60
2019-03-12T07:48:50.653Z,1.57
2019-03-12T07:51:39.202Z,1.47
2019-03-12T07:54:26.813Z,1.80
2019-03-12T07:57:11.635Z,1.33
2019-03-12T07:59:52.686Z,1.63
2019-03-12T08:02:33.110Z,1.67
2019-03-12T08:05:12.197Z,1.97
2019-03-12T08:08:01.241Z,1.30
2019-03-12T08:10:39.658Z,1.30
2019-03-12T08:13:26.785Z,1.37
2019-03-12T08:16:18.078Z,1.13
2019-03-12T08:19:04.780Z,1.23
2019-03-12T08:21:49.790Z,1.63
2019-03-12T08:24:43.545Z,1.03
2019-03-12T08:27:44.163Z,1.43
2019-03-12T08:30:32.404Z,1.33
2019-03-12T08:33:19.436Z,0.83
2019-03-12T08:36:26.113Z,0.90
2019-03-12T08:39:16.284Z,1.20
2019-03-12T08:41:58.519Z,0.73
2019-03-12T08:44:47.959Z,1.47
2019-03-12T08:47:42.285Z,0.93
2019-03-12T08:50:30.769Z,1.00
2019-03-12T08:53:22.049Z,1.00
2019-03-12T08:56:15.876Z,1.13
2019-03-12T08:58:51.998Z,1.63
2019-03-12T09:01:34.453Z,1.33
2019-03-12T09:04:20.347Z,0.93
2019-03-12T09:07:05.332Z,0.93
2019-03-12T09:09:50.802Z,1.50
2019-03-12T09:12:40.988Z,0.90
2019-03-12T09:15:35.903Z,0.93
2019-03-12T09:18:23.007Z,1.27
2019-03-12T09:21:02.434Z,0.97
2019-03-12T09:24:03.099Z,0.90
2019-03-12T09:26:45.563Z,0.70
2019-03-12T09:29:36.446Z,0.67
2019-03-12T09:32:21.864Z,0.90
2019-03-12T09:35:15.858Z,0.73
2019-03-12T09:38:05.453Z,0.93
2019-03-12T09:40:45.048Z,1.00
2019-03-12T09:43:41.863Z,0.80
2019-03-12T09:46:47.943Z,0.90
2019-03-12T09:49:42.026Z,0.93
2019-03-12T09:52:18.017Z,0.80
2019-03-12T09:55:06.556Z,0.67
2019-03-12T09:57:54.867Z,1.57
2019-03-12T10:00:52.102Z,1.20
2019-03-12T10:03:40.203Z,1.13
2019-03-12T10:06:40.376Z,1.43
2019-03-12T10:09:31.078Z,0.80
2019-03-12T10:12:19.437Z,1.60
2019-03-12T10:15:17.060Z,1.70
2019-03-12T10:18:05.892Z,1.77
2019-03-12T10:20:45.961Z,1.90
2019-03-12T10:23:30.282Z,1.20
2019-03-12T10:26:20.065Z,1.40
2019-03-12T10:29:17.330Z,0.90
2019-03-12T10:32:08.910Z,0.90
2019-03-12T10:35:00.389Z,0.80
2019-03-12T10:37:40.031Z,0.83
2019-03-12T10:40:24.260Z,1.00
2019-03-12T10:43:14.883Z,1.17
2019-03-12T10:46:09.034Z,0.73
2019-03-12T10:48:38.534Z,0.80
2019-03-12T10:51:07.862Z,0.90
2019-03-12T10:53:37.270Z,1.10
2019-03-12T10:56:06.566Z,1.40
2019-03-12T10:58:35.879Z,1.30
2019-03-12T11:01:05.213Z,0.70
2019-03-12T11:03:34.566Z,1.30
2019-03-12T11:06:04.023Z,1.00
2019-03-12T11:08:33.314Z,1.10
2019-03-12T11:11:02.577Z,0.80
2019-03-12T11:13:32.074Z,1.23
2019-03-12T11:16:01.561Z,1.20
2019-03-12T11:18:31.117Z,0.77
2019-03-12T11:21:00.420Z,0.70
2019-03-12T11:23:29.704Z,1.00
2019-03-12T11:25:58.986Z,1.20
2019-03-12T11:28:28.258Z,1.00
2019-03-12T11:30:59.808Z,0.70
2019-03-12T11:33:29.104Z,1.10
2019-03-12T11:35:58.633Z,1.10
2019-03-12T11:38:28.162Z,0.90
2019-03-12T11:40:57.480Z,0.80
2019-03-12T11:43:26.815Z,1.03
2019-03-12T11:45:56.221Z,1.07
2019-03-12T11:48:25.957Z,0.90
2019-03-12T11:50:55.382Z,0.90
2019-03-12T11:53:24.739Z,1.30
2019-03-12T11:55:54.137Z,1.30
2019-03-12T11:58:23.469Z,0.80
2019-03-12T12:00:59.484Z,0.90
2019-03-12T12:03:29.138Z,0.60
2019-03-12T12:05:58.890Z,0.90
2019-03-12T12:08:29.014Z,1.30
2019-03-12T12:10:58.769Z,1.00
2019-03-12T12:13:28.663Z,1.13
2019-03-12T12:15:58.637Z,1.23
2019-03-12T12:18:27.995Z,1.03
2019-03-12T12:21:02.410Z,0.93
2019-03-12T12:23:32.343Z,1.10
2019-03-12T12:26:01.714Z,1.00
2019-03-12T12:28:31.025Z,0.93
2019-03-12T12:31:00.327Z,0.70
2019-03-12T12:33:30.448Z,1.00
2019-03-12T12:35:59.671Z,1.10
2019-03-12T12:38:29.019Z,1.00
2019-03-12T12:40:58.371Z,1.10
2019-03-12T12:43:27.661Z,0.87
2019-03-12T12:45:56.999Z,0.70
2019-03-12T12:48:26.267Z,0.90
2019-03-12T12:51:03.043Z,1.10
2019-03-12T12:53:26.537Z,1.00
2019-03-12T12:55:55.838Z,1.00
2019-03-12T12:58:26.009Z,0.83
2019-03-12T13:00:55.481Z,0.70
2019-03-12T13:03:24.861Z,1.93
2019-03-12T13:05:55.626Z,1.23
2019-03-12T13:08:25.931Z,0.80
2019-03-12T13:10:55.288Z,0.80
2019-03-12T13:13:24.559Z,1.40
2019-03-12T13:15:53.844Z,0.80
2019-03-12T13:18:23.123Z,1.33
2019-03-12T13:20:52.585Z,1.50
2019-03-12T13:23:21.952Z,0.80
2019-03-12T13:25:51.290Z,0.70
2019-03-12T13:28:20.951Z,1.33
2019-03-12T13:31:09.391Z,1.30
2019-03-12T13:33:57.781Z,0.87
2019-03-12T13:36:27.398Z,0.50
2019-03-12T13:38:56.701Z,0.80
2019-03-12T13:41:26.229Z,0.87
2019-03-12T13:43:55.863Z,0.80
2019-03-12T13:46:44.266Z,1.20
2019-03-12T13:49:13.798Z,1.10
2019-03-12T13:51:43.535Z,1.00
2019-03-12T13:54:13.114Z,0.80
2019-03-12T13:56:42.576Z,1.00
2019-03-12T13:59:12.254Z,1.30
2019-03-12T14:01:41.551Z,1.33
2019-03-12T14:04:11.130Z,1.13
2019-03-12T14:06:40.872Z,1.50
2019-03-12T14:09:10.558Z,1.30
2019-03-12T14:11:39.995Z,1.50
2019-03-12T14:14:09.326Z,1.00
2019-03-12T14:16:38.615Z,1.30
2019-03-12T14:19:07.905Z,1.80
2019-03-12T14:21:40.370Z,1.60
2019-03-12T14:24:09.643Z,1.40
2019-03-12T14:26:39.743Z,1.80
2019-03-12T14:29:09.142Z,1.07
2019-03-12T14:31:38.780Z,1.20
2019-03-12T14:34:08.171Z,1.63
2019-03-12T14:36:37.422Z,1.17
2019-03-12T14:39:07.318Z,1.67
2019-03-12T14:41:36.627Z,1.40
2019-03-12T14:44:05.982Z,1.13
2019-03-12T14:46:35.233Z,1.77
2019-03-12T14:49:06.938Z,0.77
2019-03-12T14:52:19.586Z,1.20
2019-03-12T14:54:48.951Z,1.50
2019-03-12T14:57:18.503Z,0.93
2019-03-12T14:59:47.746Z,1.63
2019-03-12T15:02:17.368Z,1.03
2019-03-12T15:04:46.923Z,1.60
2019-03-12T15:07:16.374Z,1.27
2019-03-12T15:09:45.694Z,1.33
2019-03-12T15:12:14.931Z,1.53
2019-03-12T15:14:44.290Z,2.10
2019-03-12T15:17:13.587Z,1.83
2019-03-12T15:19:42.955Z,1.00
2019-03-12T15:22:12.383Z,1.30
2019-03-12T15:24:41.803Z,2.10
2019-03-12T15:27:10.991Z,1.97
2019-03-12T15:29:40.579Z,0.83
2019-03-12T15:32:09.878Z,1.23
2019-03-12T15:34:39.298Z,1.70
2019-03-12T15:37:08.585Z,1.07
2019-03-12T15:39:39.066Z,1.27
2019-03-12T15:42:08.334Z,1.33
2019-03-12T15:44:37.706Z,1.10
2019-03-12T15:47:08.688Z,1.10
2019-03-12T15:49:42.979Z,0.87
2019-03-12T15:52:09.439Z,1.20
2019-03-12T15:54:38.811Z,2.03
2019-03-12T15:57:08.066Z,1.30
2019-03-12T15:59:37.371Z,2.27
2019-03-12T16:02:07.074Z,1.23
2019-03-12T16:04:36.347Z,1.37
2019-03-12T16:07:05.661Z,1.67
2019-03-12T16:09:35.131Z,1.57
2019-03-12T16:12:04.722Z,1.67
2019-03-12T16:14:34.174Z,1.87
2019-03-12T16:17:03.553Z,1.50
2019-03-12T16:19:32.855Z,1.80
2019-03-12T16:22:02.232Z,1.47
2019-03-12T16:24:31.653Z,1.53
2019-03-12T16:27:03.235Z,1.40
2019-03-12T16:29:31.943Z,1.53
2019-03-12T16:32:01.606Z,1.10
2019-03-12T16:34:31.252Z,1.27
2019-03-12T16:37:00.528Z,0.90
2019-03-12T16:39:30.139Z,1.17
2019-03-12T16:41:59.769Z,1.70
2019-03-12T16:44:29.055Z,1.57
2019-03-12T16:46:58.457Z,1.50
2019-03-12T16:49:27.742Z,0.97
2019-03-12T16:51:56.996Z,1.13
2019-03-12T16:54:26.666Z,1.07
2019-03-12T16:56:56.274Z,1.17
2019-03-12T16:59:25.575Z,1.50
2019-03-12T17:01:54.952Z,1.13
2019-03-12T17:04:24.315Z,0.93
2019-03-12T17:06:53.615Z,1.20
2019-03-12T17:09:22.961Z,1.10
2019-03-12T17:11:52.302Z,1.30
2019-03-12T17:14:21.790Z,1.70
2019-03-12T17:16:51.371Z,1.10
2019-03-12T17:19:20.655Z,1.40
2019-03-12T17:21:49.985Z,1.50
2019-03-12T17:24:19.262Z,1.40
2019-03-12T17:26:54.806Z,1.33
2019-03-12T17:29:24.103Z,1.50
2019-03-12T17:31:53.398Z,1.40
2019-03-12T17:34:34.816Z,1.60
2019-03-12T17:36:54.065Z,1.40
2019-03-12T17:39:23.333Z,1.73
2019-03-12T17:41:54.458Z,1.50
2019-03-12T17:44:23.782Z,1.33
2019-03-12T17:46:53.177Z,2.00
2019-03-12T17:49:22.665Z,0.80
2019-03-12T17:51:51.966Z,1.67
2019-03-12T17:54:21.340Z,1.10
2019-03-12T17:56:50.802Z,1.40
2019-03-12T17:59:20.167Z,1.63
2019-03-12T18:01:49.575Z,1.73
2019-03-12T18:04:18.892Z,1.30
2019-03-12T18:06:48.299Z,1.47
2019-03-12T18:09:17.935Z,2.10
2019-03-12T18:11:47.309Z,1.37
2019-03-12T18:14:16.652Z,1.50
2019-03-12T18:16:46.080Z,1.40
2019-03-12T18:19:15.382Z,1.50
2019-03-12T18:21:44.699Z,1.40
2019-03-12T18:24:14.145Z,1.40
2019-03-12T18:26:43.499Z,1.73
2019-03-12T18:29:12.813Z,1.37
2019-03-12T18:31:42.096Z,1.70
2019-03-12T18:34:11.958Z,1.20
2019-03-12T18:36:41.295Z,1.40
2019-03-12T18:39:11.161Z,1.37
2019-03-12T18:41:40.831Z,1.67
2019-03-12T18:44:10.199Z,1.27
2019-03-12T18:46:39.519Z,1.00
2019-03-12T18:49:08.857Z,1.23
2019-03-12T18:51:38.439Z,1.43
2019-03-12T18:54:07.922Z,1.00
2019-03-12T18:56:37.673Z,1.30
2019-03-12T18:59:07.300Z,1.73
2019-03-12T19:01:36.586Z,1.50
2019-03-12T19:04:06.359Z,1.10
2019-03-12T19:06:35.722Z,1.60
2019-03-12T19:09:07.742Z,1.77
2019-03-12T19:11:37.592Z,1.10
2019-03-12T19:14:07.286Z,1.10
2019-03-12T19:16:36.662Z,1.00
2019-03-12T19:19:06.987Z,1.00
2019-03-12T19:21:36.245Z,0.97
2019-03-12T19:24:05.707Z,0.60
2019-03-12T19:26:34.982Z,0.90
2019-03-12T19:29:04.180Z,0.60
2019-03-12T19:31:48.148Z,0.73
2019-03-12T19:34:31.778Z,1.03
2019-03-12T19:37:01.178Z,0.50
2019-03-12T19:39:30.859Z,0.50
2019-03-12T19:42:00.231Z,0.60
2019-03-12T19:44:29.581Z,0.60
2019-03-12T19:46:58.944Z,0.80
2019-03-12T19:49:28.570Z,1.20
2019-03-12T19:51:57.903Z,0.60
2019-03-12T19:54:27.210Z,0.57
2019-03-12T19:56:56.614Z,0.50
2019-03-12T19:59:25.935Z,0.60
2019-03-12T20:01:57.884Z,0.60
2019-03-12T20:04:27.183Z,0.80
2019-03-12T20:06:56.612Z,0.60
2019-03-12T20:09:43.201Z,0.37
2019-03-12T20:12:52.807Z,0.60
2019-03-12T20:16:04.960Z,0.60
2019-03-12T20:19:21.004Z,0.63
2019-03-12T20:22:27.287Z,0.53
2019-03-12T20:25:41.133Z,0.60
2019-03-12T20:28:47.342Z,0.50
2019-03-12T20:32:05.542Z,0.70
2019-03-12T20:35:09.470Z,0.50
2019-03-12T20:38:25.988Z,0.50
2019-03-12T20:41:37.725Z,0.77
2019-03-12T20:44:59.996Z,1.17
2019-03-12T20:48:11.875Z,0.50
2019-03-12T20:51:24.492Z,0.93
2019-03-12T20:54:31.490Z,1.10
2019-03-12T20:57:43.470Z,0.87
2019-03-12T21:00:49.763Z,0.90
2019-03-12T21:04:03.156Z,0.80
2019-03-12T21:07:20.889Z,0.83
2019-03-12T21:10:47.239Z,0.73
2019-03-12T21:13:55.012Z,0.70
2019-03-12T21:17:05.082Z,0.90
2019-03-12T21:20:18.685Z,0.70
2019-03-12T21:23:24.450Z,0.70
2019-03-12T21:26:49.910Z,1.00
2019-03-12T21:29:43.027Z,1.00
2019-03-12T21:32:13.388Z,1.37
2019-03-12T21:34:43.211Z,0.90
2019-03-12T21:37:13.179Z,0.83
2019-03-12T21:39:54.466Z,1.73
2019-03-12T21:42:14.280Z,1.30
2019-03-12T21:44:43.597Z,1.63
2019-03-12T21:47:13.349Z,1.27
2019-03-12T21:49:42.641Z,1.30
2019-03-12T21:52:12.154Z,2.00
2019-03-12T21:54:42.200Z,0.90
2019-03-12T21:57:11.629Z,1.33
2019-03-12T21:59:40.918Z,1.40
2019-03-12T22:02:10.276Z,1.10
2019-03-12T22:04:39.625Z,1.10
2019-03-12T22:07:10.289Z,1.20
2019-03-12T22:09:39.554Z,1.30
2019-03-12T22:12:08.866Z,1.70
2019-03-12T22:14:38.170Z,1.83
2019-03-12T22:17:07.512Z,2.10
2019-03-12T22:19:36.850Z,1.30
2019-03-12T22:22:29.527Z,1.60
2019-03-12T22:24:59.189Z,1.60
2019-03-12T22:27:28.452Z,1.17
2019-03-12T22:29:57.777Z,1.30
2019-03-12T22:32:27.062Z,1.67
2019-03-12T22:34:56.288Z,1.23
2019-03-12T22:37:25.646Z,1.63
2019-03-12T22:39:54.931Z,1.57
2019-03-12T22:45:05.910Z,1.67
2019-03-12T22:47:35.146Z,1.30
2019-03-12T22:50:04.989Z,0.57
2019-03-12T22:52:34.233Z,1.27
2019-03-12T22:55:04.157Z,1.23
2019-03-12T22:57:33.677Z,1.00
2019-03-12T23:00:02.943Z,1.70
2019-03-12T23:02:32.175Z,1.40
2019-03-12T23:05:01.481Z,2.03
2019-03-12T23:07:30.746Z,1.60
2019-03-12T23:10:00.662Z,1.57
2019-03-12T23:12:30.061Z,1.57
2019-03-12T23:14:59.742Z,2.27
2019-03-12T23:17:28.996Z,1.43
2019-03-12T23:19:58.277Z,1.47
2019-03-12T23:22:28.118Z,1.50
2019-03-12T23:24:57.298Z,1.50
2019-03-12T23:27:26.878Z,2.00
2019-03-12T23:29:56.112Z,1.53
2019-03-12T23:32:25.366Z,1.80
2019-03-12T23:34:54.741Z,1.93
2019-03-12T23:37:23.970Z,2.27
2019-03-12T23:39:53.390Z,1.50
2019-03-12T23:42:22.958Z,1.53
2019-03-12T23:44:52.400Z,3.00
2019-03-12T23:47:21.766Z,1.40
2019-03-12T23:49:51.294Z,1.20
2019-03-12T23:52:20.570Z,2.23
2019-03-12T23:54:49.943Z,1.20
2019-03-12T23:57:19.235Z,1.27
2019-03-12T23:59:48.440Z,1.70
